메인 페이지
METAR-TAF:

METAR-TAF

공항 :

란치, 인도

위도: 23-18-51N, 경도: 85-19-18E, 고도: 646m

현재 날씨관측

예보는 33분 전, 14:00시(UTC)에 발표되었습니다.
북북동2kt
온도 21°C
습도 43%
기압 1018 hPa
시정: 4000m
연무

METAR: VERC 191400Z 03002KT 4000 HZ NSC 21/08 Q1018 NOSIG

시각: 20:03 (14:33 UTC)


TAF: 누락

4,000개 이상의 공항 관측 자료 및 예보 (METAR 및 TAF 보고).

지도상에서 검색 가능한 기상관측소가 노란 점과 빨간 점으로 표시되어 있습니다.

기상관측소 명을 보려면 표시 위로 마우스를 이동하세요.

날씨 관측과 예보를 보려면 클릭하세요.

지도 변경 : 확대하려면 엑스 표시가 있는 녹색 버튼, 축소하려면 빼기 표시가 있는 녹색 버튼, 다음 페이지의 지도를 보려면 녹색 화살표를 클릭하세요.


METAR-TAF: